Time;durP1;ratioP1;P1;durP2;ratioP2;P2;SDS_P1;SDS_P2;PMS_P1;PMS_P2;Temp;Humidity;BMP_temperature;BMP_pressure;BME280_temperature;BME280_humidity;BME280_pressure;Samples;Min_cycle;Max_cycle;Signal;HPM_P1;HPM_P2
2022/08/16 00:01:21;;;;;;;3.28;2.97;;;26.20;64.50;;;;;;5037569;28;43546;-63
2022/08/16 00:03:52;;;;;;;3.20;3.00;;;26.20;64.50;;;;;;5037293;28;43800;-63
2022/08/16 00:06:20;;;;;;;3.03;2.83;;;26.20;64.50;;;;;;5032253;28;43693;-63
2022/08/16 00:08:49;;;;;;;3.15;2.80;;;26.20;64.50;;;;;;5035439;28;43430;-63
2022/08/16 00:11:19;;;;;;;3.35;3.00;;;26.20;64.50;;;;;;5038713;28;43526;-63
2022/08/16 00:13:49;;;;;;;3.20;3.00;;;26.10;64.40;;;;;;5041417;28;44046;-63
2022/08/16 00:16:27;;;;;;;3.40;3.10;;;26.10;64.40;;;;;;5033971;28;43494;-63
2022/08/16 00:19:18;;;;;;;3.00;2.80;;;26.20;64.60;;;;;;5038608;28;43541;-63
2022/08/16 00:21:50;;;;;;;3.22;3.03;;;26.20;64.60;;;;;;5038833;28;43429;-63
2022/08/16 00:24:22;;;;;;;3.22;2.97;;;26.10;64.50;;;;;;5049329;28;44985;-64
2022/08/16 00:27:01;;;;;;;3.15;2.95;;;26.10;64.50;;;;;;5034181;28;43407;-65
2022/08/16 00:29:30;;;;;;;3.00;2.80;;;26.10;64.50;;;;;;5033531;28;43433;-63
2022/08/16 00:32:02;;;;;;;2.92;2.72;;;26.10;64.50;;;;;;5032591;28;43367;-63
2022/08/16 00:34:34;;;;;;;3.20;3.00;;;26.10;64.50;;;;;;5031766;28;43859;-63
2022/08/16 00:37:13;;;;;;;3.08;2.88;;;26.10;64.50;;;;;;5032776;28;43459;-65
2022/08/16 00:39:46;;;;;;;2.92;2.72;;;26.10;64.60;;;;;;5038188;28;43370;-63
2022/08/16 00:42:27;;;;;;;2.95;2.75;;;26.10;64.50;;;;;;5030506;28;43518;-63
2022/08/16 00:45:20;;;;;;;2.95;2.75;;;26.10;64.50;;;;;;5038085;28;43786;-64
2022/08/16 00:47:52;;;;;;;3.15;2.95;;;26.10;64.50;;;;;;5046092;28;43388;-64
2022/08/16 00:50:23;;;;;;;3.00;2.80;;;26.10;64.60;;;;;;5040703;28;43434;-63
2022/08/16 00:53:05;;;;;;;3.17;2.97;;;26.10;64.60;;;;;;5054595;28;43531;-63
2022/08/16 00:55:36;;;;;;;2.95;2.83;;;26.00;64.60;;;;;;5031278;28;44065;-63
2022/08/16 00:58:09;;;;;;;3.50;3.30;;;26.00;64.50;;;;;;5038986;28;43722;-65
2022/08/16 01:00:44;;;;;;;3.38;3.08;;;26.00;64.60;;;;;;5056542;28;43463;-63
2022/08/16 01:03:26;;;;;;;3.20;3.00;;;26.00;64.50;;;;;;5036444;28;43510;-64
2022/08/16 01:05:57;;;;;;;2.90;2.70;;;26.00;64.50;;;;;;5037456;28;43864;-64
2022/08/16 01:08:26;;;;;;;3.50;3.20;;;26.00;64.60;;;;;;5037811;28;43543;-64
2022/08/16 01:11:04;;;;;;;3.08;2.85;;;26.00;64.50;;;;;;5026023;28;43416;-64
2022/08/16 01:13:35;;;;;;;2.90;2.70;;;26.00;64.50;;;;;;5039061;28;43604;-64
2022/08/16 01:16:13;;;;;;;3.00;2.80;;;26.00;64.60;;;;;;5036697;28;44965;-65
2022/08/16 01:18:52;;;;;;;3.35;3.05;;;26.00;65.20;;;;;;5036841;28;43501;-64
2022/08/16 01:21:24;;;;;;;3.30;3.10;;;26.00;64.60;;;;;;5025147;28;43443;-64
2022/08/16 01:24:20;;;;;;;3.22;3.00;;;26.00;64.60;;;;;;5037232;28;43448;-64
2022/08/16 01:27:11;;;;;;;3.40;3.10;;;26.00;64.60;;;;;;5038130;28;44105;-63
2022/08/16 01:29:56;;;;;;;3.03;2.83;;;26.00;64.60;;;;;;5036199;28;43777;-64
2022/08/16 01:32:29;;;;;;;3.28;3.05;;;26.00;64.60;;;;;;5034399;28;43971;-63
2022/08/16 01:35:05;;;;;;;3.05;2.85;;;25.90;64.50;;;;;;5055141;28;43526;-64
2022/08/16 01:37:42;;;;;;;2.90;2.70;;;25.90;64.50;;;;;;5029036;28;44056;-64
2022/08/16 01:40:23;;;;;;;3.17;2.97;;;25.90;64.50;;;;;;5039633;28;43475;-64
2022/08/16 01:42:54;;;;;;;3.05;2.85;;;25.90;64.60;;;;;;5052939;28;43539;-63
2022/08/16 01:45:23;;;;;;;3.50;3.20;;;25.90;64.50;;;;;;5056287;28;44018;-63
2022/08/16 01:48:07;;;;;;;3.03;2.83;;;25.90;64.60;;;;;;5044781;28;44052;-63
2022/08/16 01:50:49;;;;;;;3.53;2.85;;;25.90;64.60;;;;;;5039851;28;43467;-63
2022/08/16 01:53:36;;;;;;;3.15;2.80;;;25.90;64.60;;;;;;5039917;28;43382;-63
2022/08/16 01:56:17;;;;;;;3.03;2.83;;;25.90;64.60;;;;;;5052130;28;43591;-63
2022/08/16 01:58:55;;;;;;;3.28;3.08;;;25.90;64.60;;;;;;5035001;28;45037;-63
2022/08/16 02:01:26;;;;;;;3.33;2.90;;;25.90;64.60;;;;;;5056557;28;43485;-63
2022/08/16 02:03:56;;;;;;;3.10;2.80;;;25.90;64.60;;;;;;5039503;28;43436;-65
2022/08/16 02:06:33;;;;;;;3.08;2.88;;;25.90;64.60;;;;;;5048472;28;43538;-63
2022/08/16 02:09:06;;;;;;;2.85;2.67;;;25.90;64.60;;;;;;5047820;28;44060;-63
2022/08/16 02:11:42;;;;;;;3.10;2.90;;;25.90;64.60;;;;;;5039711;28;43962;-65
2022/08/16 02:14:22;;;;;;;3.10;2.90;;;25.90;64.70;;;;;;5032507;28;43461;-64
2022/08/16 02:16:56;;;;;;;3.15;2.95;;;25.80;64.50;;;;;;5036755;28;43622;-64
2022/08/16 02:19:28;;;;;;;2.90;2.70;;;25.90;64.60;;;;;;5038794;28;44072;-65
2022/08/16 02:22:18;;;;;;;2.88;2.67;;;25.90;64.70;;;;;;5040797;28;43403;-64
2022/08/16 02:25:06;;;;;;;2.97;2.78;;;25.80;64.50;;;;;;5039154;28;43520;-63
2022/08/16 02:27:37;;;;;;;3.00;2.80;;;25.80;64.60;;;;;;5031528;28;43571;-65
2022/08/16 02:30:07;;;;;;;2.97;2.78;;;25.80;64.60;;;;;;5037917;28;43827;-63
2022/08/16 02:32:35;;;;;;;3.42;3.13;;;25.80;64.60;;;;;;5043501;28;43708;-63
2022/08/16 02:35:20;;;;;;;2.80;2.60;;;25.80;64.60;;;;;;5056443;28;44044;-65
2022/08/16 02:37:51;;;;;;;2.88;2.67;;;25.80;64.60;;;;;;5049901;28;43549;-65
2022/08/16 02:40:24;;;;;;;2.72;2.63;;;25.80;64.60;;;;;;5057743;28;44977;-63
2022/08/16 02:42:53;;;;;;;3.05;2.85;;;25.80;64.70;;;;;;5030420;28;43436;-64
2022/08/16 02:45:24;;;;;;;3.28;3.08;;;25.80;64.60;;;;;;5044719;28;43456;-63
2022/08/16 02:47:55;;;;;;;2.85;2.75;;;25.80;64.60;;;;;;5057058;28;43475;-63
2022/08/16 02:50:28;;;;;;;2.75;2.55;;;25.80;64.60;;;;;;5058253;28;44657;-64
2022/08/16 02:53:16;;;;;;;3.00;2.80;;;25.80;64.60;;;;;;5028290;28;43438;-65
2022/08/16 02:55:51;;;;;;;3.25;3.03;;;25.80;64.60;;;;;;5033732;28;43488;-63
2022/08/16 02:58:21;;;;;;;2.97;2.65;;;25.70;64.60;;;;;;5055851;28;43527;-64
2022/08/16 03:00:53;;;;;;;3.13;2.92;;;25.80;64.70;;;;;;5040829;28;44637;-65
2022/08/16 03:03:25;;;;;;;3.20;3.00;;;25.70;64.60;;;;;;5042390;28;43559;-63
2022/08/16 03:05:54;;;;;;;3.03;2.83;;;25.80;64.70;;;;;;5053643;28;44084;-63
2022/08/16 03:08:23;;;;;;;3.22;3.03;;;25.70;64.60;;;;;;5057253;28;43452;-63
2022/08/16 03:11:11;;;;;;;2.92;2.72;;;25.70;64.60;;;;;;5046134;28;44062;-63
2022/08/16 03:13:48;;;;;;;3.05;2.85;;;25.70;64.60;;;;;;5025176;28;44020;-63
2022/08/16 03:16:19;;;;;;;2.90;2.70;;;25.70;64.70;;;;;;5041299;28;43468;-63
2022/08/16 03:19:08;;;;;;;3.40;3.10;;;25.70;64.70;;;;;;5030294;28;43497;-63
2022/08/16 03:21:36;;;;;;;2.72;2.63;;;25.70;64.70;;;;;;5033975;28;43977;-63
2022/08/16 03:24:08;;;;;;;3.28;2.88;;;25.70;64.70;;;;;;5043362;28;43579;-63
2022/08/16 03:27:01;;;;;;;3.00;2.80;;;25.70;64.60;;;;;;5055011;28;43456;-64
2022/08/16 03:29:32;;;;;;;3.15;2.95;;;25.70;64.70;;;;;;5032856;28;43465;-63
2022/08/16 03:32:02;;;;;;;2.92;2.75;;;25.70;64.70;;;;;;5046984;28;45304;-64
2022/08/16 03:34:33;;;;;;;3.17;2.97;;;25.70;64.70;;;;;;5035122;28;43469;-63
2022/08/16 03:37:01;;;;;;;3.10;2.90;;;25.70;64.60;;;;;;5059522;28;43440;-65
2022/08/16 03:39:29;;;;;;;2.90;2.70;;;25.70;64.70;;;;;;5046999;28;43432;-63
2022/08/16 03:41:58;;;;;;;3.38;3.08;;;25.60;64.70;;;;;;5050015;28;43882;-63
2022/08/16 03:44:28;;;;;;;2.90;2.78;;;25.60;64.60;;;;;;5036336;28;44634;-64
2022/08/16 03:47:12;;;;;;;2.92;2.72;;;25.60;64.70;;;;;;5041657;28;43425;-63
2022/08/16 03:49:47;;;;;;;3.10;2.90;;;25.70;64.70;;;;;;5038341;28;43571;-63
2022/08/16 03:52:21;;;;;;;2.83;2.72;;;25.60;64.70;;;;;;5041930;28;44099;-63
2022/08/16 03:54:50;;;;;;;;;;;25.60;64.70;;;;;;5048711;28;43364;-63
2022/08/16 03:57:25;;;;;;;2.95;2.75;;;25.60;64.70;;;;;;5054419;28;43430;-64
2022/08/16 04:00:18;;;;;;;2.88;2.72;;;25.60;64.80;;;;;;5045232;28;43579;-63
2022/08/16 04:03:07;;;;;;;2.83;2.70;;;25.60;64.70;;;;;;5031133;28;44066;-63
2022/08/16 04:05:42;;;;;;;3.00;2.80;;;25.60;64.70;;;;;;5056951;28;43369;-63
2022/08/16 04:08:14;;;;;;;3.33;3.13;;;25.60;64.80;;;;;;5033014;28;43408;-64
2022/08/16 04:10:54;;;;;;;3.23;3.03;;;25.60;64.80;;;;;;5046226;28;43507;-64
2022/08/16 04:13:27;;;;;;;3.13;2.92;;;25.60;64.70;;;;;;5037661;28;43881;-64
2022/08/16 04:16:16;;;;;;;3.45;3.08;;;25.60;64.80;;;;;;5031864;28;43949;-64
2022/08/16 04:18:57;;;;;;;3.00;2.80;;;25.60;64.80;;;;;;5046796;28;43409;-63
2022/08/16 04:21:34;;;;;;;3.05;2.80;;;25.60;64.80;;;;;;5021825;28;43460;-64
2022/08/16 04:24:13;;;;;;;2.75;2.55;;;25.60;65.40;;;;;;5049431;28;43885;-64
2022/08/16 04:26:41;;;;;;;3.00;2.80;;;25.60;64.80;;;;;;5037448;28;43953;-64
2022/08/16 04:29:16;;;;;;;3.20;3.00;;;25.60;64.80;;;;;;5048960;28;43532;-63
2022/08/16 04:31:54;;;;;;;3.22;2.92;;;25.60;64.80;;;;;;5040302;28;43575;-63
2022/08/16 04:34:33;;;;;;;3.13;2.92;;;25.60;64.80;;;;;;5032502;28;44677;-64
2022/08/16 04:37:01;;;;;;;3.38;3.08;;;25.50;64.70;;;;;;5036967;28;44142;-63
2022/08/16 04:39:35;;;;;;;3.05;2.85;;;25.60;64.80;;;;;;5040380;28;43456;-63
2022/08/16 04:42:23;;;;;;;2.90;2.80;;;25.50;64.70;;;;;;5040381;28;43720;-63
2022/08/16 04:44:54;;;;;;;3.15;2.95;;;25.50;64.70;;;;;;5039323;28;44749;-63
2022/08/16 04:47:30;;;;;;;3.10;2.90;;;25.50;64.70;;;;;;5049816;28;43552;-63
2022/08/16 04:50:13;;;;;;;3.28;3.08;;;25.50;64.70;;;;;;5039626;28;43419;-64
2022/08/16 04:52:57;;;;;;;3.05;2.85;;;25.50;64.70;;;;;;5038920;28;43536;-63
2022/08/16 04:55:29;;;;;;;3.28;3.08;;;25.50;64.70;;;;;;5045416;28;43824;-63
2022/08/16 04:58:06;;;;;;;3.28;3.08;;;25.50;64.70;;;;;;5037062;28;43660;-64
2022/08/16 05:00:56;;;;;;;2.97;2.78;;;25.50;64.70;;;;;;5038520;28;43424;-63
2022/08/16 05:03:28;;;;;;;3.10;2.90;;;25.50;64.70;;;;;;5034130;28;43547;-63
2022/08/16 05:05:56;;;;;;;3.17;2.92;;;25.50;64.70;;;;;;5035872;28;45041;-64
2022/08/16 05:08:32;;;;;;;3.22;3.03;;;25.50;64.70;;;;;;5039704;28;43491;-63
2022/08/16 05:11:21;;;;;;;3.15;2.92;;;25.40;64.60;;;;;;5024865;28;43427;-63
2022/08/16 05:13:49;;;;;;;3.40;3.20;;;25.40;64.70;;;;;;5036684;28;43473;-63
2022/08/16 05:16:28;;;;;;;3.15;2.95;;;25.50;64.70;;;;;;5039853;28;44818;-63
2022/08/16 05:19:11;;;;;;;3.35;3.15;;;25.50;64.70;;;;;;5056956;28;43418;-63
2022/08/16 05:22:02;;;;;;;;;;;25.40;64.60;;;;;;5034031;28;43509;-63
2022/08/16 05:24:33;;;;;;;3.22;3.03;;;25.40;64.60;;;;;;5050141;28;43633;-63
2022/08/16 05:27:04;;;;;;;3.40;3.10;;;25.40;64.70;;;;;;5039851;28;45079;-63
2022/08/16 05:29:39;;;;;;;3.05;2.85;;;25.40;64.80;;;;;;5056438;28;44010;-63
2022/08/16 05:32:26;;;;;;;3.50;3.30;;;25.40;64.70;;;;;;5049492;28;43483;-64
2022/08/16 05:35:06;;;;;;;3.13;2.92;;;25.40;64.80;;;;;;5046265;28;43542;-63
2022/08/16 05:37:42;;;;;;;3.13;2.92;;;25.40;65.40;;;;;;5040138;28;44097;-63
2022/08/16 05:40:13;;;;;;;3.28;3.08;;;25.40;64.80;;;;;;5041071;28;43664;-63
2022/08/16 05:42:42;;;;;;;3.07;2.87;;;25.40;64.70;;;;;;5051567;28;43598;-63
2022/08/16 05:45:14;;;;;;;3.67;3.38;;;25.40;64.80;;;;;;5056100;28;43483;-63
2022/08/16 05:47:49;;;;;;;3.80;3.33;;;25.40;64.80;;;;;;5054963;28;44079;-64
2022/08/16 05:50:30;;;;;;;;;;;25.40;64.80;;;;;;5056398;28;43552;-64
2022/08/16 05:53:02;;;;;;;3.33;3.13;;;25.40;64.80;;;;;;5045683;28;44043;-64
2022/08/16 05:55:35;;;;;;;3.10;2.90;;;25.40;64.90;;;;;;5051897;28;44172;-64
2022/08/16 05:58:07;;;;;;;3.40;3.10;;;25.40;64.90;;;;;;5042806;28;43668;-63
2022/08/16 06:00:55;;;;;;;3.08;2.88;;;25.40;64.90;;;;;;5050118;28;43687;-64
2022/08/16 06:03:24;;;;;;;3.35;3.15;;;25.40;64.90;;;;;;5044626;28;43390;-64
2022/08/16 06:06:00;;;;;;;3.25;3.05;;;25.30;64.80;;;;;;5047207;28;43499;-63
2022/08/16 06:08:32;;;;;;;3.65;3.35;;;25.30;64.90;;;;;;5055382;28;44241;-64
2022/08/16 06:11:14;;;;;;;3.40;3.20;;;25.40;64.90;;;;;;5055199;28;44012;-64
2022/08/16 06:13:48;;;;;;;3.35;3.15;;;25.30;64.90;;;;;;5052689;28;43475;-64
2022/08/16 06:16:21;;;;;;;3.20;3.00;;;25.30;64.90;;;;;;5035397;28;43591;-64
2022/08/16 06:18:54;;;;;;;3.45;3.15;;;25.40;64.90;;;;;;5036571;28;44098;-64
2022/08/16 06:21:22;;;;;;;3.60;3.40;;;25.40;65.00;;;;;;5054624;28;44046;-64
2022/08/16 06:23:59;;;;;;;3.33;3.13;;;25.40;65.00;;;;;;5053297;28;43442;-64
2022/08/16 06:26:30;;;;;;;3.53;3.33;;;25.40;65.00;;;;;;5029646;28;43496;-63
2022/08/16 06:29:05;;;;;;;3.50;3.25;;;25.30;64.90;;;;;;5052140;28;43831;-63
2022/08/16 06:31:40;;;;;;;3.03;2.83;;;25.40;65.00;;;;;;5057445;28;43645;-64
2022/08/16 06:34:19;;;;;;;3.70;3.40;;;25.30;65.00;;;;;;5048707;28;43415;-65
2022/08/16 06:37:10;;;;;;;3.30;3.10;;;25.30;65.10;;;;;;5043062;28;43443;-65
2022/08/16 06:39:40;;;;;;;3.40;3.17;;;25.30;65.10;;;;;;5057246;28;43884;-64
2022/08/16 06:42:42;;;;;;;3.40;3.15;;;25.30;65.10;;;;;;5027473;28;43749;-64
2022/08/16 06:45:36;;;;;;;3.33;3.10;;;25.30;65.10;;;;;;5045923;28;43513;-65
2022/08/16 06:48:13;;;;;;;3.35;3.15;;;25.30;65.10;;;;;;5052502;28;43400;-65
2022/08/16 06:50:50;;;;;;;4.20;3.83;;;25.30;65.10;;;;;;5056109;28;44963;-66
2022/08/16 06:53:20;;;;;;;3.42;3.22;;;25.30;65.00;;;;;;5037300;28;43781;-65
2022/08/16 06:56:05;;;;;;;3.85;3.55;;;25.30;65.00;;;;;;5040844;28;43424;-65
2022/08/16 06:58:59;;;;;;;4.00;3.70;;;25.30;65.00;;;;;;5038364;28;43429;-64
2022/08/16 07:01:33;;;;;;;3.63;3.42;;;25.30;65.10;;;;;;5051091;28;43787;-65
2022/08/16 07:04:20;;;;;;;3.72;3.50;;;25.30;65.10;;;;;;5037705;28;43983;-65
2022/08/16 07:07:07;;;;;;;3.45;3.20;;;25.30;65.10;;;;;;5046325;28;43424;-65
2022/08/16 07:09:37;;;;;;;;;;;25.20;65.00;;;;;;5049494;28;43521;-65
2022/08/16 07:12:07;;;;;;;3.58;3.38;;;25.20;65.00;;;;;;5050178;28;43999;-66
2022/08/16 07:14:39;;;;;;;3.53;3.30;;;25.30;65.10;;;;;;5040574;28;43460;-64
2022/08/16 07:17:08;;;;;;;3.30;3.10;;;25.30;65.10;;;;;;5057603;28;43368;-65
2022/08/16 07:19:43;;;;;;;4.00;3.60;;;25.20;65.00;;;;;;5046925;28;43543;-65
2022/08/16 07:22:43;;;;;;;3.80;3.50;;;25.20;65.00;;;;;;5054449;28;45062;-64
2022/08/16 07:25:26;;;;;;;3.55;3.25;;;25.20;65.00;;;;;;5033641;28;43695;-64
2022/08/16 07:27:54;;;;;;;3.90;3.60;;;25.30;65.10;;;;;;5034282;28;43563;-64
2022/08/16 07:30:29;;;;;;;3.90;3.60;;;25.30;65.10;;;;;;5037358;28;43630;-64
2022/08/16 07:33:30;;;;;;;3.80;3.50;;;25.30;65.00;;;;;;5053922;28;43796;-64
2022/08/16 07:36:19;;;;;;;3.92;3.63;;;25.30;65.10;;;;;;5053049;28;43926;-64
2022/08/16 07:38:51;;;;;;;3.60;3.40;;;25.30;65.00;;;;;;5037355;28;43726;-64
2022/08/16 07:41:20;;;;;;;3.58;3.28;;;25.30;65.10;;;;;;5037190;28;43691;-64
2022/08/16 07:43:53;;;;;;;3.60;3.30;;;25.30;64.90;;;;;;5054610;28;44139;-64
2022/08/16 07:46:23;;;;;;;4.07;3.78;;;25.30;65.00;;;;;;5036712;28;43562;-64
2022/08/16 07:49:18;;;;;;;4.15;3.85;;;25.30;65.00;;;;;;5036916;28;43501;-64
2022/08/16 07:51:46;;;;;;;3.85;3.55;;;25.30;65.00;;;;;;5053622;28;43605;-64
2022/08/16 07:54:16;;;;;;;4.40;3.90;;;25.30;65.00;;;;;;5036738;28;43881;-65
2022/08/16 07:57:00;;;;;;;3.95;3.65;;;25.40;64.90;;;;;;5037591;28;43798;-64
2022/08/16 07:59:29;;;;;;;3.90;3.60;;;25.40;64.90;;;;;;5035897;28;43506;-65
2022/08/16 08:02:15;;;;;;;3.90;3.60;;;25.40;64.90;;;;;;5052987;28;43527;-65
2022/08/16 08:04:55;;;;;;;3.92;3.63;;;25.40;64.90;;;;;;5050212;28;43705;-65
2022/08/16 08:07:25;;;;;;;4.47;4.07;;;25.40;64.90;;;;;;5053521;28;43607;-65
2022/08/16 08:09:56;;;;;;;4.90;4.38;;;25.40;64.90;;;;;;5041169;28;43544;-65
2022/08/16 08:12:25;;;;;;;5.25;4.72;;;25.40;65.00;;;;;;5038183;28;43574;-65
2022/08/16 08:15:01;;;;;;;4.80;4.40;;;25.40;65.00;;;;;;5036535;28;44712;-64
2022/08/16 08:17:30;;;;;;;4.43;3.92;;;25.40;65.00;;;;;;5053290;28;43985;-65
2022/08/16 08:20:25;;;;;;;4.72;4.10;;;25.40;65.10;;;;;;5036584;28;43502;-65
2022/08/16 08:22:59;;;;;;;5.22;4.45;;;25.40;65.10;;;;;;5053551;28;43498;-65
2022/08/16 08:25:47;;;;;;;4.00;3.75;;;25.40;65.10;;;;;;5026855;28;44748;-65
2022/08/16 08:28:27;;;;;;;4.50;4.15;;;25.40;65.10;;;;;;5019882;28;43981;-65
2022/08/16 08:31:02;;;;;;;4.13;3.83;;;25.40;65.00;;;;;;5020113;28;43576;-65
2022/08/16 08:33:35;;;;;;;4.55;4.25;;;25.30;65.00;;;;;;5037184;28;43805;-65
2022/08/16 08:36:06;;;;;;;4.28;3.97;;;25.40;65.70;;;;;;5052065;28;44942;-65
2022/08/16 08:38:36;;;;;;;4.35;3.97;;;25.40;65.00;;;;;;5052692;28;43496;-65
2022/08/16 08:41:16;;;;;;;4.80;4.40;;;25.40;65.00;;;;;;5052378;28;43603;-65
2022/08/16 08:43:50;;;;;;;4.80;4.40;;;25.40;65.00;;;;;;5053510;28;43501;-65
2022/08/16 08:46:20;;;;;;;4.88;4.50;;;25.40;65.00;;;;;;5036391;28;43802;-66
2022/08/16 08:48:51;;;;;;;;;;;25.40;64.90;;;;;;5052671;28;44036;-65
2022/08/16 08:51:29;;;;;;;4.70;4.30;;;25.40;65.00;;;;;;5036299;28;43569;-65
2022/08/16 08:54:07;;;;;;;5.00;4.60;;;25.40;65.00;;;;;;5051137;28;43461;-65
2022/08/16 08:56:40;;;;;;;4.88;4.47;;;25.40;64.90;;;;;;5039253;28;44052;-65
2022/08/16 08:59:41;;;;;;;5.72;4.70;;;25.40;64.90;;;;;;4996296;28;44006;-65
2022/08/16 09:02:14;;;;;;;4.85;4.45;;;25.40;64.90;;;;;;5041291;28;43486;-65
2022/08/16 09:04:50;;;;;;;5.07;4.65;;;25.40;65.00;;;;;;5053774;28;43610;-65
2022/08/16 09:07:21;;;;;;;5.38;4.88;;;25.40;64.90;;;;;;5049163;28;43870;-65
2022/08/16 09:09:53;;;;;;;4.75;4.35;;;25.40;64.90;;;;;;5039767;28;44804;-65
2022/08/16 09:12:40;;;;;;;4.50;4.20;;;25.40;64.90;;;;;;5056165;28;44025;-65
2022/08/16 09:15:20;;;;;;;5.10;4.70;;;25.40;64.90;;;;;;5051883;28;43447;-65
2022/08/16 09:17:54;;;;;;;5.00;4.60;;;25.40;64.90;;;;;;5054608;28;44976;-65
2022/08/16 09:20:28;;;;;;;5.00;4.60;;;25.40;64.80;;;;;;5039553;28;43463;-65
2022/08/16 09:22:58;;;;;;;5.15;4.75;;;25.40;65.50;;;;;;5051960;28;43368;-65
2022/08/16 09:25:31;;;;;;;4.90;4.50;;;25.40;64.80;;;;;;5052824;28;44058;-65
2022/08/16 09:28:04;;;;;;;4.85;4.45;;;25.40;64.80;;;;;;5038239;28;44944;-65
2022/08/16 09:30:42;;;;;;;4.78;4.47;;;25.40;64.80;;;;;;5043498;28;43448;-65
2022/08/16 09:33:17;;;;;;;4.80;4.40;;;25.50;64.80;;;;;;5035047;28;43415;-65
2022/08/16 09:35:48;;;;;;;4.68;4.38;;;25.50;64.90;;;;;;5036840;28;43537;-65
2022/08/16 09:38:21;;;;;;;4.75;4.43;;;25.50;64.80;;;;;;5036332;28;44693;-66
2022/08/16 09:41:04;;;;;;;4.03;3.80;;;25.50;64.70;;;;;;5027011;28;43550;-65
2022/08/16 09:43:41;;;;;;;4.50;4.20;;;25.50;64.70;;;;;;5035324;28;43493;-65
2022/08/16 09:46:26;;;;;;;4.40;4.10;;;25.50;64.70;;;;;;5039672;28;43449;-65
2022/08/16 09:49:14;;;;;;;4.50;4.10;;;25.50;64.70;;;;;;5039706;28;44711;-65
2022/08/16 09:51:53;;;;;;;4.55;4.25;;;25.60;64.80;;;;;;5040416;28;43488;-65
2022/08/16 09:54:23;;;;;;;4.60;4.20;;;25.60;64.80;;;;;;5039907;28;43447;-65
2022/08/16 09:56:59;;;;;;;4.20;3.92;;;25.60;64.80;;;;;;5029928;28;43512;-65
2022/08/16 09:59:26;;;;;;;4.10;3.88;;;25.60;64.80;;;;;;5029546;28;43831;-64
2022/08/16 10:01:59;;;;;;;4.28;3.97;;;25.60;64.80;;;;;;5029774;28;43617;-64
2022/08/16 10:04:46;;;;;;;4.80;4.50;;;25.60;65.40;;;;;;5045350;28;43403;-65
2022/08/16 10:07:22;;;;;;;4.70;4.30;;;25.60;64.80;;;;;;5028365;28;43490;-65
2022/08/16 10:09:50;;;;;;;4.50;4.10;;;25.60;64.80;;;;;;5027839;28;43810;-65
2022/08/16 10:15:19;;;;;;;4.40;4.10;;;25.60;64.70;;;;;;5039660;28;43487;-65
2022/08/16 10:17:51;;;;;;;4.55;4.25;;;25.60;64.70;;;;;;5025954;28;43411;-65
2022/08/16 10:20:34;;;;;;;4.55;4.15;;;25.70;64.80;;;;;;5032648;28;45013;-65
2022/08/16 10:23:06;;;;;;;4.40;4.10;;;25.70;64.80;;;;;;5037764;28;43977;-65
2022/08/16 10:25:39;;;;;;;4.57;4.18;;;25.70;64.70;;;;;;5040286;28;43429;-66
2022/08/16 10:28:28;;;;;;;4.25;3.95;;;25.70;64.70;;;;;;5032446;28;43446;-65
2022/08/16 10:31:08;;;;;;;4.25;3.95;;;25.70;64.70;;;;;;5035716;28;43932;-65
2022/08/16 10:33:44;;;;;;;4.47;4.18;;;25.70;64.70;;;;;;5035069;28;43991;-65
2022/08/16 10:36:13;;;;;;;4.60;4.30;;;25.70;64.80;;;;;;5035937;28;43524;-64
2022/08/16 10:39:01;;;;;;;5.40;4.88;;;25.70;65.00;;;;;;5035649;28;43420;-65
2022/08/16 10:41:31;;;;;;;4.93;4.47;;;25.80;64.90;;;;;;5035949;28;43806;-65
2022/08/16 10:43:59;;;;;;;5.13;4.63;;;25.80;65.00;;;;;;5035666;28;43708;-65
2022/08/16 10:46:26;;;;;;;4.38;4.07;;;25.90;65.00;;;;;;5035553;28;43571;-64
2022/08/16 10:49:10;;;;;;;4.50;4.20;;;25.90;65.10;;;;;;5036870;28;43480;-64
2022/08/16 10:51:39;;;;;;;5.72;4.53;;;25.90;65.00;;;;;;5038854;28;45513;-60
2022/08/16 10:54:26;;;;;;;4.93;4.43;;;25.90;65.50;;;;;;5039176;28;44086;-66
2022/08/16 10:57:01;;;;;;;5.68;4.82;;;25.90;65.00;;;;;;5038620;28;43400;-66
2022/08/16 10:59:32;;;;;;;4.80;4.40;;;25.90;65.00;;;;;;5038220;28;43487;-67
2022/08/16 11:02:20;;;;;;;5.22;4.80;;;25.90;65.00;;;;;;5038720;28;43877;-67
2022/08/16 11:05:11;;;;;;;5.00;4.70;;;25.90;65.00;;;;;;5038138;28;43692;-66
2022/08/16 11:07:47;;;;;;;5.38;4.88;;;25.90;65.00;;;;;;5038895;28;43465;-66
2022/08/16 11:10:31;;;;;;;4.55;4.25;;;26.00;65.00;;;;;;5037092;28;43503;-66
2022/08/16 11:13:27;;;;;;;4.68;4.28;;;26.00;64.90;;;;;;5038495;28;44918;-66
2022/08/16 11:16:14;;;;;;;4.95;4.55;;;26.10;64.90;;;;;;5050630;28;43797;-66
2022/08/16 11:19:03;;;;;;;5.00;4.70;;;26.10;65.00;;;;;;5038587;28;43483;-67
2022/08/16 11:21:42;;;;;;;4.45;4.07;;;26.10;64.90;;;;;;5037386;28;44322;-66
2022/08/16 11:24:29;;;;;;;5.37;4.77;;;26.10;64.90;;;;;;5038111;28;43822;-66
2022/08/16 11:27:13;;;;;;;5.18;4.78;;;26.10;64.90;;;;;;5039198;28;43522;-66
2022/08/16 11:29:53;;;;;;;4.60;4.20;;;26.10;64.90;;;;;;5038970;28;43434;-67
2022/08/16 11:32:27;;;;;;;5.18;4.80;;;26.20;65.00;;;;;;5039459;28;43542;-66
2022/08/16 11:35:03;;;;;;;4.95;4.57;;;26.20;64.70;;;;;;5035735;28;43612;-67
2022/08/16 11:37:41;;;;;;;;;;;26.20;64.70;;;;;;5042535;28;44095;-66
2022/08/16 11:40:31;;;;;;;5.20;4.80;;;26.20;64.60;;;;;;5028039;28;43579;-67
2022/08/16 11:43:00;;;;;;;;;;;26.20;64.70;;;;;;5035979;28;43500;-66
2022/08/16 11:45:33;;;;;;;4.40;4.10;;;26.20;64.60;;;;;;5039411;28;44686;-66
2022/08/16 11:48:03;;;;;;;5.18;4.68;;;26.20;64.70;;;;;;5042423;28;43931;-66
2022/08/16 11:50:32;;;;;;;4.85;4.53;;;26.30;64.70;;;;;;5042480;28;43455;-67
2022/08/16 11:53:01;;;;;;;4.78;4.47;;;26.30;64.70;;;;;;5037784;28;43407;-66
2022/08/16 11:55:31;;;;;;;4.80;4.43;;;26.30;64.60;;;;;;5040489;28;44692;-67
2022/08/16 11:58:00;;;;;;;4.93;4.53;;;26.30;64.70;;;;;;5027335;28;43538;-66
2022/08/16 12:00:31;;;;;;;4.60;4.20;;;26.40;64.70;;;;;;5052545;28;43426;-67
2022/08/16 12:03:17;;;;;;;4.70;4.30;;;26.40;64.60;;;;;;5039068;28;43599;-67
2022/08/16 12:05:45;;;;;;;5.05;4.65;;;26.40;64.50;;;;;;5037637;28;43991;-67
2022/08/16 12:08:19;;;;;;;5.07;4.68;;;26.40;64.50;;;;;;5036000;28;43460;-67
2022/08/16 12:10:53;;;;;;;4.97;4.65;;;26.40;64.60;;;;;;5042707;28;43435;-67
2022/08/16 12:13:26;;;;;;;5.28;4.88;;;26.50;64.50;;;;;;5039890;28;43436;-67
2022/08/16 12:15:55;;;;;;;4.95;4.55;;;26.50;64.50;;;;;;5035704;28;44969;-66
2022/08/16 12:18:23;;;;;;;5.40;5.00;;;26.50;64.60;;;;;;5029816;28;43514;-66
2022/08/16 12:20:51;;;;;;;4.80;4.40;;;26.50;64.70;;;;;;5035985;28;43498;-67
2022/08/16 12:23:22;;;;;;;5.60;4.97;;;26.50;64.60;;;;;;5042016;28;44014;-67
2022/08/16 12:25:49;;;;;;;5.07;4.68;;;26.50;64.60;;;;;;5042136;28;44917;-67
2022/08/16 12:28:18;;;;;;;4.85;4.50;;;26.50;64.50;;;;;;5033776;28;43784;-67
2022/08/16 12:31:06;;;;;;;4.72;4.43;;;26.50;64.70;;;;;;5040363;28;43400;-66
2022/08/16 12:33:33;;;;;;;5.20;4.80;;;26.50;64.40;;;;;;5036569;28;43586;-67
2022/08/16 12:36:12;;;;;;;5.03;4.63;;;26.50;64.60;;;;;;5026123;28;43627;-67
2022/08/16 12:38:41;;;;;;;5.13;4.72;;;26.50;64.50;;;;;;5035169;28;43423;-67
2022/08/16 12:41:15;;;;;;;4.88;4.53;;;26.50;64.50;;;;;;5036122;28;43430;-67
2022/08/16 12:43:52;;;;;;;5.13;4.72;;;26.50;64.50;;;;;;5032750;28;43601;-67
2022/08/16 12:46:28;;;;;;;5.05;4.65;;;26.50;64.60;;;;;;5031359;28;43889;-67
2022/08/16 12:48:59;;;;;;;4.90;4.50;;;26.50;64.80;;;;;;5040068;28;43442;-67
2022/08/16 12:51:36;;;;;;;4.80;4.50;;;26.60;64.90;;;;;;5042389;28;43539;-67
2022/08/16 12:54:24;;;;;;;5.30;4.80;;;26.60;64.70;;;;;;5031305;28;43345;-67
2022/08/16 12:56:51;;;;;;;5.35;4.95;;;26.60;64.60;;;;;;5037955;28;44432;-67
2022/08/16 12:59:21;;;;;;;5.25;4.85;;;26.60;64.60;;;;;;5039634;28;43487;-67
2022/08/16 13:01:51;;;;;;;5.00;4.60;;;26.60;64.60;;;;;;5030116;28;43383;-67
2022/08/16 13:04:27;;;;;;;4.70;4.38;;;26.70;64.60;;;;;;5038159;28;43381;-67
2022/08/16 13:07:01;;;;;;;4.57;4.28;;;26.70;64.70;;;;;;5033283;28;44700;-67
2022/08/16 13:09:32;;;;;;;5.05;4.65;;;26.70;64.80;;;;;;5040306;28;44058;-67
2022/08/16 13:12:18;;;;;;;10.15;5.20;;;26.70;64.60;;;;;;5031092;28;43400;-67
2022/08/16 13:14:48;;;;;;;5.22;4.78;;;26.70;65.50;;;;;;5031973;28;43503;-67
2022/08/16 13:17:27;;;;;;;5.05;4.57;;;26.70;65.10;;;;;;5038309;28;43954;-67
2022/08/16 13:19:56;;;;;;;5.28;4.88;;;26.70;65.00;;;;;;5042508;28;43499;-67
2022/08/16 13:23:00;;;;;;;5.05;4.57;;;26.80;64.90;;;;;;5042435;28;43515;-67
2022/08/16 13:25:32;;;;;;;4.80;4.40;;;26.80;64.80;;;;;;5041072;28;43442;-67
2022/08/16 13:28:00;;;;;;;5.10;4.70;;;26.80;64.90;;;;;;5036389;28;44970;-67
2022/08/16 13:30:32;;;;;;;;;;;26.80;64.90;;;;;;5035197;28;43504;-67
2022/08/16 13:33:14;;;;;;;4.85;4.45;;;26.80;64.70;;;;;;5029664;28;43447;-67
2022/08/16 13:35:52;;;;;;;4.93;4.53;;;26.90;64.90;;;;;;5037864;28;43583;-67
2022/08/16 13:38:25;;;;;;;4.93;4.53;;;26.90;64.80;;;;;;5051489;28;44116;-67